Betts, South Dakota
Current Conditions -  °F | °C
As of 8:53 PM on Friday 28 Nov 2014 (Local Time) from KMHE Reporting Station
Haze Haze  
Wind Chill: 19°   Ceiling: Unl
Heat Index: 27°   Visibility: 5mi
Dew Point: 25°   Wind: 7mph
Humidity: 92%   Direction: 130°SE
Pressure: 29.59"   Gusts: NA
Location:  43.7034°N, 98.0626°W
Report Text: KMHE 290253Z AUTO 13006KT 5SM BR CLR M03/M04 A2959 RMK AO2 SLP037 T10281039 58021
Loading
Personal Weather Stations






























Interactive Weather Map New forecast layout! Learn more

10-Day Weather Forecast

Advertisements
Track Severe Weather on mobile